Latest Coastal Weather Observations for Ballina

IDN60701

Issued at 2:21 pm EST Saturday 25 April 2015 (issued every 10 minutes, with the page automatically refreshed every 10 minutes)

About coastal observations | Map of coastal stations | Coastal observations for NSW | Marine services | Other Formats
Station Details ID: 058198 Name: BALLINA AIRPORT AWS Lat: -28.84 Lon: 153.56 Height: 1.3 m
Data from the previous 72 hours. | See also: Recent months at Ballina
Date/Time
EST
Temp

°C
Wind Pressure Rain
since 9am
mm
Weather Cloud Vis
km
Sea
Height
m
Swell
Dir
 
Speed
knots
Gust
knots
hPa Trend Height
m
Period
s
Dir
25/02:00pm 27.6 NW 6 9 1007.2 - 0.0 - - 10 - - - -
25/01:30pm 27.1 WSW 7 12 1007.5 - 0.0 - - 10 - - - -
25/01:00pm 27.2 W 7 13 1007.9 - 0.0 - - 10 - - - -
25/12:30pm 27.3 W 6 13 1008.0 - 0.0 - - 10 - - - -
25/12:00pm 27.2 WNW 6 11 1008.4 - 0.0 - - 10 - - - -
25/11:30am 26.7 WNW 6 11 1008.9 - 0.0 - - 10 - - - -
25/11:00am 26.1 WNW 7 9 1009.4 - 0.0 - - 10 - - - -
25/10:30am 25.9 WNW 9 12 1009.8 - 0.0 - - 10 - - - -
25/10:00am 25.2 WNW 7 9 1010.1 - 0.0 - - 10 - - - -
25/09:30am 24.9 WNW 9 12 1010.3 - 0.0 - - 10 - - - -
25/09:00am 24.6 NW 6 8 1010.4 - 0.0 - Mostly cloudy 10 - - - -
25/08:30am 23.3 WNW 7 9 1010.2 - 0.0 - - 10 - - - -
25/08:00am 21.4 WNW 4 6 1010.2 - 0.0 - - 10 - - - -
25/07:30am 18.4 NW 1 3 1010.0 - 0.0 - - 10 - - - -
25/07:00am 16.6 CALM 0 1 1009.9 - 0.0 - - 10 - - - -
25/06:30am 15.4 NW 1 4 1009.5 - 0.0 - - 10 - - - -
25/06:00am 16.5 WNW 4 5 1009.2 - 0.0 - - 10 - - - -
25/05:30am 16.2 WNW 5 6 1009.0 - 0.0 - - 10 - - - -
25/05:00am 13.9 WNW 4 6 1008.8 - 0.0 - - 10 - - - -
25/04:30am 13.8 CALM 0 0 1008.5 - 0.0 - - 10 - - - -
25/04:00am 14.6 CALM 0 0 1008.4 - 0.0 - - 10 - - - -
25/03:30am 14.3 CALM 0 0 1008.4 - 0.0 - - 10 - - - -
25/03:00am 14.4 NNE 1 3 1008.5 - 0.0 - Cloudy 10 - - - -
25/02:30am 14.6 NNE 2 4 1008.5 - 0.0 - - 10 - - - -
25/02:00am 14.9 CALM 0 0 1008.6 - 0.0 - - 10 - - - -
25/01:30am 14.7 NNE 3 4 1008.8 - 0.0 - - 10 - - - -
25/01:00am 15.4 CALM 0 0 1008.8 - 0.0 - - 10 - - - -
25/12:30am 15.9 CALM 0 0 1008.9 - 0.0 - - 10 - - - -
 
Date/Time
EST
Temp

°C
Wind Pressure Rain
since 9am
mm
Weather Cloud Vis
km
Sea
Height
m
Swell
Dir
 
Speed
knots
Gust
knots
hPa Trend Height
m
Period
s
Dir
24/11:30pm 17.6 N 3 4 1009.1 - 0.0 - - 10 - - - -
24/11:00pm 18.8 NNW 5 6 1009.1 - 0.0 - - 10 - - - -
24/10:30pm 19.1 NNW 6 7 1009.1 - 0.0 - - 10 - - - -
24/10:00pm 19.1 N 5 6 1009.2 - 0.0 - - 10 - - - -
24/09:30pm 17.3 NNW 5 6 1009.2 - 0.0 - - 10 - - - -
24/09:00pm 17.9 N 4 6 1009.1 - 0.0 - - 10 - - - -
24/08:30pm 18.6 N 5 6 1009.0 - 0.0 - - 10 - - - -
24/08:00pm 18.6 N 6 7 1008.9 - 0.0 - - 10 - - - -
24/07:30pm 18.6 N 5 7 1008.8 - 0.0 - - 10 - - - -
24/07:00pm 19.0 N 4 5 1008.6 - 0.0 - - 10 - - - -
24/06:30pm 19.5 N 4 5 1008.4 - 0.0 - - 10 - - - -
24/06:00pm 20.6 N 5 6 1008.1 - 0.0 - - 10 - - - -
24/05:30pm 21.2 NNE 5 7 1007.6 - 0.0 - - 10 - - - -
24/05:00pm 22.2 NNE 5 7 1007.5 - 0.0 - - 10 - - - -
24/04:30pm 23.4 NE 9 11 1007.4 - 0.0 - - 10 - - - -
24/04:00pm 24.2 NE 7 9 1007.4 - 0.0 - - 10 - - - -
24/03:30pm 24.6 NE 7 10 1007.2 - 0.0 - - 10 - - - -
24/03:00pm 24.6 ENE 8 11 1007.1 - 0.0 - Mostly clear 10 - - - -
24/02:30pm 25.1 E 8 9 1007.3 - 0.0 - Partly cloudy 10 - - - -
24/02:00pm 25.5 SE 4 8 1007.6 - 0.0 - Partly cloudy 10 - - - -
24/01:30pm 26.0 NNW 5 9 1007.6 - 0.0 - - 10 - - - -
24/01:00pm 25.9 NW 5 8 1008.0 - 0.0 - - 10 - - - -
24/12:30pm 25.5 WNW 5 8 1008.4 - 0.0 - - 10 - - - -
24/12:00pm 25.0 NNW 6 10 1008.9 - 0.0 - Mostly clear 10 - - - -
24/11:30am 23.7 WNW 6 10 1009.4 - 0.0 - - 10 - - - -
24/11:00am 24.1 WNW 4 9 1009.5 - 0.0 - - 10 - - - -
24/10:30am 22.5 WSW 5 8 1009.9 - 0.0 - - 10 - - - -
24/10:00am 22.0 W 4 6 1010.1 - 0.0 - - 10 - - - -
24/09:30am 21.0 WSW 5 7 1010.6 - 0.0 - - 10 - - - -
24/09:00am 19.7 WSW 4 6 1010.7 - 0.0 - Cloudy 10 - - - -
24/08:30am 18.2 NW 1 4 1010.7 - 0.0 - - 10 - - - -
24/08:00am 17.0 CALM 0 0 1010.6 - 0.0 - - 10 - - - -
24/07:30am 16.0 CALM 0 0 1010.4 - 0.0 - - 10 - - - -
24/07:00am 15.4 CALM 0 0 1010.3 - 0.0 - - 10 - - - -
24/06:30am 14.2 CALM 0 0 1009.9 - 0.0 - - 10 - - - -
24/06:00am 14.3 CALM 0 1 1010.0 - 0.0 - Mostly cloudy 10 - - - -
24/05:30am 14.3 NW 1 3 1009.5 - 0.0 - - 10 - - - -
24/05:00am 14.4 CALM 0 0 1009.4 - 0.0 - - 10 - - - -
24/04:30am 14.6 CALM 0 0 1009.2 - 0.0 - - 10 - - - -
24/04:00am 14.4 CALM 0 0 1009.3 - 0.0 - - 10 - - - -
24/03:30am 14.5 CALM 0 0 1009.4 - 0.0 - - 10 - - - -
24/03:00am 14.1 CALM 0 0 1009.7 - 0.0 - Cloudy 10 - - - -
24/02:30am 14.1 CALM 0 0 1009.8 - 0.0 - - 10 - - - -
24/02:00am 14.1 CALM 0 0 1009.8 - 0.0 - - 10 - - - -
24/01:30am 14.0 CALM 0 0 1009.9 - 0.0 - Partly cloudy 10 - - - -
24/01:00am 14.0 CALM 0 0 1010.4 - 0.0 - Partly cloudy 10 - - - -
24/12:30am 13.8 CALM 0 0 1010.7 - 0.0 - - 10 - - - -
24/12:00am 14.0 CALM 0 0 1010.6 - 0.0 - - 10 - - - -
 
Date/Time
EST
Temp

°C
Wind Pressure Rain
since 9am
mm
Weather Cloud Vis
km
Sea
Height
m
Swell
Dir
 
Speed
knots
Gust
knots
hPa Trend Height
m
Period
s
Dir
23/11:30pm 13.4 CALM 0 0 1010.8 - 0.0 - - 10 - - - -
23/11:00pm 13.7 CALM 0 0 1011.2 - 0.0 - - 10 - - - -
23/10:30pm 14.0 CALM 0 0 1011.1 - 0.0 - - 10 - - - -
23/10:00pm 14.4 CALM 0 0 1011.1 - 0.0 - - 10 - - - -
23/09:30pm 14.8 CALM 0 0 1011.2 - 0.0 - - 10 - - - -
23/09:00pm 14.9 CALM 0 0 1011.1 - 0.0 - - 10 - - - -
23/08:30pm 14.7 CALM 0 0 1011.0 - 0.0 - - 10 - - - -
23/08:00pm 15.1 CALM 0 0 1010.8 - 0.0 - - 10 - - - -
23/07:30pm 15.6 CALM 0 0 1010.9 - 0.0 - - 10 - - - -
23/07:00pm 16.3 CALM 0 0 1010.9 - 0.0 - - 10 - - - -
23/06:30pm 17.1 CALM 0 0 1010.5 - 0.0 - - 10 - - - -
23/06:00pm 18.1 CALM 0 0 1010.1 - 0.0 - - 10 - - - -
23/05:30pm 19.1 ENE 3 4 1009.9 - 0.0 - - 10 - - - -
23/05:00pm 21.1 ENE 4 5 1009.7 - 0.0 - - 10 - - - -
23/04:30pm 22.2 ENE 6 7 1009.4 - 0.0 - - 10 - - - -
23/04:00pm 22.5 E 6 9 1009.4 - 0.0 - - 10 - - - -
23/03:30pm 22.9 ENE 7 10 1009.4 - 0.0 - - 10 - - - -
23/03:00pm 23.2 ENE 8 11 1009.5 - 0.0 - - 10 - - - -
23/02:30pm 23.1 E 8 12 1009.6 - 0.0 - - 10 - - - -
23/02:00pm 23.4 E 6 9 1009.6 - 0.0 - - 10 - - - -
23/01:30pm 23.1 ESE 8 11 1009.9 - 0.0 - - 10 - - - -
23/01:00pm 23.3 ESE 8 11 1010.4 - 0.0 - - 10 - - - -
23/12:30pm 23.1 SSE 7 9 1010.9 - 0.0 - Partly cloudy 10 - - - -
23/12:00pm 23.3 SSE 7 10 1011.5 - 0.0 - Partly cloudy 10 - - - -
23/11:30am 23.7 NNW 4 10 1011.8 - 0.0 - Partly cloudy 10 - - - -
23/11:00am 23.5 N 3 8 1012.1 - 0.0 - - 10 - - - -
23/10:30am 22.7 WSW 4 8 1012.5 - 0.0 - - 10 - - - -
23/10:00am 21.8 W 5 8 1012.6 - 0.0 - - 10 - - - -
23/09:30am 21.6 W 6 9 1012.8 - 0.0 - - 10 - - - -
23/09:00am 20.0 W 7 9 1012.8 - 0.0 - - 10 - - - -
23/08:30am 19.3 W 8 10 1012.9 - 0.0 - - 10 - - - -
23/08:00am 18.3 W 6 8 1012.9 - 0.0 - - 10 - - - -
23/07:30am 15.9 W 4 5 1013.0 - 0.0 - - 10 - - - -
23/07:00am 13.3 W 4 6 1012.7 - 0.0 - - 10 - - - -
23/06:30am 11.2 CALM 0 0 1012.2 - 0.0 - - 10 - - - -
23/06:00am 11.4 CALM 0 3 1012.0 - 0.0 - - 10 - - - -
23/05:30am 10.5 W 4 5 1011.8 - 0.0 - - 10 - - - -
23/05:00am 10.7 W 3 5 1011.6 - 0.0 - - 10 - - - -
23/04:30am 10.7 CALM 0 0 1011.5 - 0.0 - - 10 - - - -
23/04:00am 11.2 CALM 0 0 1011.3 - 0.0 - - 10 - - - -
23/03:30am 11.2 CALM 0 0 1011.1 - 0.0 - - 10 - - - -
23/03:00am 11.3 CALM 0 0 1011.1 - 0.0 - - 10 - - - -
23/02:30am 11.9 CALM 0 0 1011.2 - 0.0 - - 10 - - - -
23/02:00am 12.0 CALM 0 0 1011.5 - 0.0 - - 10 - - - -
23/01:30am 11.9 CALM 0 0 1011.7 - 0.0 - - 10 - - - -
23/01:00am 12.2 W 3 4 1011.9 - 0.0 - - 10 - - - -
23/12:30am 13.0 NW 2 4 1012.1 - 0.0 - - 10 - - - -
23/12:00am 12.8 CALM 0 0 1012.3 - 0.0 - - 10 - - - -
 
Date/Time
EST
Temp

°C
Wind Pressure Rain
since 9am
mm
Weather Cloud Vis
km
Sea
Height
m
Swell
Dir
 
Speed
knots
Gust
knots
hPa Trend Height
m
Period
s
Dir
22/11:30pm 13.1 CALM 0 0 1012.5 - 0.0 - - 10 - - - -
22/11:00pm 14.7 WNW 4 5 1012.7 - 0.0 - - 10 - - - -
22/10:30pm 14.5 W 2 8 1012.9 - 0.0 - - 10 - - - -
22/10:00pm 14.3 NW 3 6 1013.1 - 0.0 - - 10 - - - -
22/09:30pm 15.5 NNW 4 5 1013.2 - 0.0 - - 10 - - - -
22/09:00pm 15.8 NNW 6 8 1013.1 - 0.0 - - 10 - - - -
22/08:30pm 15.1 NNW 6 8 1013.2 - 0.0 - - 10 - - - -
22/08:00pm 14.6 CALM 0 0 1012.9 - 0.0 - - 10 - - - -
22/07:30pm 14.5 CALM 0 0 1012.9 - 0.0 - - 10 - - - -
22/07:00pm 15.4 CALM 0 0 1012.7 - 0.0 - - 10 - - - -
22/06:30pm 15.8 CALM 0 0 1012.4 - 0.0 - - 10 - - - -
22/06:00pm 16.7 N 3 3 1012.1 - 0.0 - - 10 - - - -
22/05:30pm 18.5 N 3 4 1011.8 - 0.0 - - 10 - - - -
22/05:00pm 19.5 NNE 5 7 1011.5 - 0.0 - - 10 - - - -
22/04:30pm 20.5 NNE 7 9 1011.2 - 0.0 - - 10 - - - -
22/04:00pm 21.0 NE 9 11 1011.1 - 0.0 - - 10 - - - -
22/03:30pm 21.3 NE 9 12 1011.1 - 0.0 - - 10 - - - -
22/03:00pm 21.8 NE 9 12 1011.0 - 0.0 - - 10 - - - -
22/02:30pm 21.7 NE 10 13 1011.1 - 0.0 - - 10 - - - -

Other Formats:

Comma delimited format used in spreadsheet applications
http://www.bom.gov.au/fwo/IDN60701/IDN60701.94596.axf

JavaScript Object Notation format (JSON) in row-major order
http://www.bom.gov.au/fwo/IDN60701/IDN60701.94596.json